sensor_id;sensor_type;location;lat;lon;timestamp;P1;durP1;ratioP1;P2;durP2;ratioP2
75890;SDS011;64571;47.512;19.054;2023-04-24T00:01:50;13.33;;;7.80;;
75890;SDS011;64571;47.512;19.054;2023-04-24T00:04:54;12.05;;;7.50;;
75890;SDS011;64571;47.512;19.054;2023-04-24T00:07:56;14.57;;;6.93;;
75890;SDS011;64571;47.512;19.054;2023-04-24T00:10:59;11.50;;;6.62;;
75890;SDS011;64571;47.512;19.054;2023-04-24T00:14:02;12.52;;;6.93;;
75890;SDS011;64571;47.512;19.054;2023-04-24T00:17:04;14.67;;;8.67;;
75890;SDS011;64571;47.512;19.054;2023-04-24T00:20:07;15.68;;;7.93;;
75890;SDS011;64571;47.512;19.054;2023-04-24T00:23:10;16.23;;;8.55;;
75890;SDS011;64571;47.512;19.054;2023-04-24T00:26:12;12.88;;;7.90;;
75890;SDS011;64571;47.512;19.054;2023-04-24T00:29:15;15.68;;;7.85;;
75890;SDS011;64571;47.512;19.054;2023-04-24T00:32:18;13.47;;;8.07;;
75890;SDS011;64571;47.512;19.054;2023-04-24T00:35:23;12.52;;;7.95;;
75890;SDS011;64571;47.512;19.054;2023-04-24T00:38:25;15.65;;;7.78;;
75890;SDS011;64571;47.512;19.054;2023-04-24T00:41:28;12.35;;;7.60;;
75890;SDS011;64571;47.512;19.054;2023-04-24T00:44:32;14.10;;;7.80;;
75890;SDS011;64571;47.512;19.054;2023-04-24T00:47:35;16.00;;;7.50;;
75890;SDS011;64571;47.512;19.054;2023-04-24T00:50:39;13.57;;;7.15;;
75890;SDS011;64571;47.512;19.054;2023-04-24T00:53:41;14.00;;;7.40;;
75890;SDS011;64571;47.512;19.054;2023-04-24T00:56:44;16.62;;;8.23;;
75890;SDS011;64571;47.512;19.054;2023-04-24T00:59:47;13.88;;;7.87;;
75890;SDS011;64571;47.512;19.054;2023-04-24T01:02:49;14.27;;;7.13;;
75890;SDS011;64571;47.512;19.054;2023-04-24T01:05:54;13.13;;;6.87;;
75890;SDS011;64571;47.512;19.054;2023-04-24T01:08:57;13.77;;;7.47;;
75890;SDS011;64571;47.512;19.054;2023-04-24T01:12:04;13.73;;;7.70;;
75890;SDS011;64571;47.512;19.054;2023-04-24T01:15:07;13.93;;;7.32;;
75890;SDS011;64571;47.512;19.054;2023-04-24T01:18:11;15.57;;;7.07;;
75890;SDS011;64571;47.512;19.054;2023-04-24T01:21:14;10.50;;;7.03;;
75890;SDS011;64571;47.512;19.054;2023-04-24T01:24:19;12.00;;;7.60;;
75890;SDS011;64571;47.512;19.054;2023-04-24T01:27:21;16.98;;;7.40;;
75890;SDS011;64571;47.512;19.054;2023-04-24T01:30:24;14.40;;;7.40;;
75890;SDS011;64571;47.512;19.054;2023-04-24T01:33:27;12.00;;;7.10;;
75890;SDS011;64571;47.512;19.054;2023-04-24T01:36:30;14.70;;;7.37;;
75890;SDS011;64571;47.512;19.054;2023-04-24T01:39:34;13.32;;;7.53;;
75890;SDS011;64571;47.512;19.054;2023-04-24T01:42:38;15.52;;;7.55;;
75890;SDS011;64571;47.512;19.054;2023-04-24T01:45:42;12.02;;;7.30;;
75890;SDS011;64571;47.512;19.054;2023-04-24T01:48:45;13.67;;;7.60;;
75890;SDS011;64571;47.512;19.054;2023-04-24T01:51:47;14.18;;;7.93;;
75890;SDS011;64571;47.512;19.054;2023-04-24T01:54:50;13.05;;;7.70;;
75890;SDS011;64571;47.512;19.054;2023-04-24T01:57:54;13.75;;;8.13;;
75890;SDS011;64571;47.512;19.054;2023-04-24T02:00:58;16.42;;;8.43;;
75890;SDS011;64571;47.512;19.054;2023-04-24T02:04:01;15.50;;;8.30;;
75890;SDS011;64571;47.512;19.054;2023-04-24T02:07:04;18.98;;;9.23;;
75890;SDS011;64571;47.512;19.054;2023-04-24T02:10:07;13.20;;;7.85;;
75890;SDS011;64571;47.512;19.054;2023-04-24T02:13:11;13.43;;;8.50;;
75890;SDS011;64571;47.512;19.054;2023-04-24T02:16:13;15.02;;;8.48;;
75890;SDS011;64571;47.512;19.054;2023-04-24T02:19:16;14.90;;;9.27;;
75890;SDS011;64571;47.512;19.054;2023-04-24T02:22:18;15.32;;;8.48;;
75890;SDS011;64571;47.512;19.054;2023-04-24T02:25:21;19.08;;;9.32;;
75890;SDS011;64571;47.512;19.054;2023-04-24T02:28:24;16.15;;;9.02;;
75890;SDS011;64571;47.512;19.054;2023-04-24T02:31:26;14.00;;;8.38;;
75890;SDS011;64571;47.512;19.054;2023-04-24T02:34:29;16.30;;;8.20;;
75890;SDS011;64571;47.512;19.054;2023-04-24T02:37:34;15.93;;;8.52;;
75890;SDS011;64571;47.512;19.054;2023-04-24T02:40:36;13.07;;;8.68;;
75890;SDS011;64571;47.512;19.054;2023-04-24T02:43:39;15.77;;;8.27;;
75890;SDS011;64571;47.512;19.054;2023-04-24T02:46:41;14.05;;;8.85;;
75890;SDS011;64571;47.512;19.054;2023-04-24T02:49:44;16.43;;;7.87;;
75890;SDS011;64571;47.512;19.054;2023-04-24T02:52:47;12.60;;;8.20;;
75890;SDS011;64571;47.512;19.054;2023-04-24T02:55:50;13.88;;;8.48;;
75890;SDS011;64571;47.512;19.054;2023-04-24T02:58:52;14.57;;;9.27;;
75890;SDS011;64571;47.512;19.054;2023-04-24T03:01:55;19.27;;;9.88;;
75890;SDS011;64571;47.512;19.054;2023-04-24T03:04:57;12.80;;;8.43;;
75890;SDS011;64571;47.512;19.054;2023-04-24T03:08:00;12.80;;;7.80;;
75890;SDS011;64571;47.512;19.054;2023-04-24T03:11:03;14.13;;;8.43;;
75890;SDS011;64571;47.512;19.054;2023-04-24T03:14:05;12.48;;;8.25;;
75890;SDS011;64571;47.512;19.054;2023-04-24T03:17:08;11.82;;;8.13;;
75890;SDS011;64571;47.512;19.054;2023-04-24T03:20:10;14.37;;;9.07;;
75890;SDS011;64571;47.512;19.054;2023-04-24T03:23:13;16.02;;;9.43;;
75890;SDS011;64571;47.512;19.054;2023-04-24T03:26:16;16.20;;;9.82;;
75890;SDS011;64571;47.512;19.054;2023-04-24T03:29:20;15.93;;;10.07;;
75890;SDS011;64571;47.512;19.054;2023-04-24T03:32:22;18.37;;;9.88;;
75890;SDS011;64571;47.512;19.054;2023-04-24T03:35:26;17.03;;;9.77;;
75890;SDS011;64571;47.512;19.054;2023-04-24T03:38:29;15.50;;;9.75;;
75890;SDS011;64571;47.512;19.054;2023-04-24T03:41:32;20.45;;;10.80;;
75890;SDS011;64571;47.512;19.054;2023-04-24T03:44:35;19.50;;;11.02;;
75890;SDS011;64571;47.512;19.054;2023-04-24T03:47:38;17.90;;;10.18;;
75890;SDS011;64571;47.512;19.054;2023-04-24T03:50:42;16.40;;;11.00;;
75890;SDS011;64571;47.512;19.054;2023-04-24T03:53:45;16.73;;;10.55;;
75890;SDS011;64571;47.512;19.054;2023-04-24T03:56:48;14.45;;;10.20;;
75890;SDS011;64571;47.512;19.054;2023-04-24T03:59:51;22.08;;;11.32;;
75890;SDS011;64571;47.512;19.054;2023-04-24T04:02:55;16.40;;;9.95;;
75890;SDS011;64571;47.512;19.054;2023-04-24T04:05:58;18.30;;;11.13;;
75890;SDS011;64571;47.512;19.054;2023-04-24T04:09:00;17.33;;;10.40;;
75890;SDS011;64571;47.512;19.054;2023-04-24T04:12:03;17.00;;;10.50;;
75890;SDS011;64571;47.512;19.054;2023-04-24T04:15:06;17.85;;;11.00;;
75890;SDS011;64571;47.512;19.054;2023-04-24T04:18:09;19.70;;;10.75;;
75890;SDS011;64571;47.512;19.054;2023-04-24T04:21:12;21.23;;;11.07;;
75890;SDS011;64571;47.512;19.054;2023-04-24T04:24:15;15.32;;;10.73;;
75890;SDS011;64571;47.512;19.054;2023-04-24T04:27:18;17.58;;;11.12;;
75890;SDS011;64571;47.512;19.054;2023-04-24T04:30:21;16.33;;;10.48;;
75890;SDS011;64571;47.512;19.054;2023-04-24T04:33:24;18.35;;;12.13;;
75890;SDS011;64571;47.512;19.054;2023-04-24T04:36:28;16.47;;;11.63;;
75890;SDS011;64571;47.512;19.054;2023-04-24T04:39:32;16.27;;;9.52;;
75890;SDS011;64571;47.512;19.054;2023-04-24T04:42:35;22.42;;;11.55;;
75890;SDS011;64571;47.512;19.054;2023-04-24T04:45:37;18.60;;;10.65;;
75890;SDS011;64571;47.512;19.054;2023-04-24T04:48:43;18.80;;;10.20;;
75890;SDS011;64571;47.512;19.054;2023-04-24T04:51:45;14.80;;;10.00;;
75890;SDS011;64571;47.512;19.054;2023-04-24T04:54:49;19.00;;;9.95;;
75890;SDS011;64571;47.512;19.054;2023-04-24T04:57:52;19.08;;;9.95;;
75890;SDS011;64571;47.512;19.054;2023-04-24T05:00:55;18.45;;;9.40;;
75890;SDS011;64571;47.512;19.054;2023-04-24T05:03:59;19.67;;;10.00;;
75890;SDS011;64571;47.512;19.054;2023-04-24T05:07:03;15.87;;;10.20;;
75890;SDS011;64571;47.512;19.054;2023-04-24T05:10:05;15.98;;;9.90;;
75890;SDS011;64571;47.512;19.054;2023-04-24T05:13:08;18.92;;;10.38;;
75890;SDS011;64571;47.512;19.054;2023-04-24T05:16:11;17.75;;;9.52;;
75890;SDS011;64571;47.512;19.054;2023-04-24T05:19:14;18.20;;;9.60;;
75890;SDS011;64571;47.512;19.054;2023-04-24T05:22:19;23.37;;;10.73;;
75890;SDS011;64571;47.512;19.054;2023-04-24T05:25:23;14.65;;;10.10;;
75890;SDS011;64571;47.512;19.054;2023-04-24T05:28:26;15.07;;;10.13;;
75890;SDS011;64571;47.512;19.054;2023-04-24T05:31:32;15.95;;;9.90;;
75890;SDS011;64571;47.512;19.054;2023-04-24T05:34:35;22.60;;;11.38;;
75890;SDS011;64571;47.512;19.054;2023-04-24T05:37:38;19.27;;;11.43;;
75890;SDS011;64571;47.512;19.054;2023-04-24T05:40:41;18.37;;;12.13;;
75890;SDS011;64571;47.512;19.054;2023-04-24T05:43:43;16.12;;;10.05;;
75890;SDS011;64571;47.512;19.054;2023-04-24T05:46:46;19.20;;;11.68;;
75890;SDS011;64571;47.512;19.054;2023-04-24T05:49:48;19.62;;;10.38;;
75890;SDS011;64571;47.512;19.054;2023-04-24T05:52:51;18.83;;;9.80;;
75890;SDS011;64571;47.512;19.054;2023-04-24T05:55:55;17.60;;;9.55;;
75890;SDS011;64571;47.512;19.054;2023-04-24T05:58:57;17.20;;;9.20;;
75890;SDS011;64571;47.512;19.054;2023-04-24T06:02:00;14.93;;;9.43;;
75890;SDS011;64571;47.512;19.054;2023-04-24T06:05:03;17.10;;;10.43;;
75890;SDS011;64571;47.512;19.054;2023-04-24T06:08:06;16.63;;;10.20;;
75890;SDS011;64571;47.512;19.054;2023-04-24T06:11:10;27.33;;;9.40;;
75890;SDS011;64571;47.512;19.054;2023-04-24T06:14:13;13.50;;;9.15;;
75890;SDS011;64571;47.512;19.054;2023-04-24T06:17:19;14.65;;;9.35;;
75890;SDS011;64571;47.512;19.054;2023-04-24T06:20:22;14.00;;;8.93;;
75890;SDS011;64571;47.512;19.054;2023-04-24T06:23:24;14.50;;;9.13;;
75890;SDS011;64571;47.512;19.054;2023-04-24T06:26:28;17.70;;;8.52;;
75890;SDS011;64571;47.512;19.054;2023-04-24T06:29:31;13.73;;;8.75;;
75890;SDS011;64571;47.512;19.054;2023-04-24T06:32:34;16.73;;;9.27;;
75890;SDS011;64571;47.512;19.054;2023-04-24T06:35:36;15.35;;;9.95;;
75890;SDS011;64571;47.512;19.054;2023-04-24T06:38:40;15.20;;;9.07;;
75890;SDS011;64571;47.512;19.054;2023-04-24T06:41:42;16.48;;;10.00;;
75890;SDS011;64571;47.512;19.054;2023-04-24T06:44:51;14.35;;;9.50;;
75890;SDS011;64571;47.512;19.054;2023-04-24T06:47:53;19.80;;;9.82;;
75890;SDS011;64571;47.512;19.054;2023-04-24T06:50:56;14.18;;;9.80;;
75890;SDS011;64571;47.512;19.054;2023-04-24T06:53:58;16.77;;;10.13;;
75890;SDS011;64571;47.512;19.054;2023-04-24T06:57:01;16.77;;;9.70;;
75890;SDS011;64571;47.512;19.054;2023-04-24T07:00:05;18.95;;;10.40;;
75890;SDS011;64571;47.512;19.054;2023-04-24T07:03:09;20.55;;;10.15;;
75890;SDS011;64571;47.512;19.054;2023-04-24T07:06:12;15.10;;;10.20;;
75890;SDS011;64571;47.512;19.054;2023-04-24T07:09:15;15.07;;;10.17;;
75890;SDS011;64571;47.512;19.054;2023-04-24T07:12:21;16.12;;;10.27;;
75890;SDS011;64571;47.512;19.054;2023-04-24T07:15:23;15.80;;;10.07;;
75890;SDS011;64571;47.512;19.054;2023-04-24T07:18:26;19.17;;;10.55;;
75890;SDS011;64571;47.512;19.054;2023-04-24T07:21:28;21.62;;;10.50;;
75890;SDS011;64571;47.512;19.054;2023-04-24T07:24:33;16.67;;;9.83;;
75890;SDS011;64571;47.512;19.054;2023-04-24T07:27:35;18.80;;;10.30;;
75890;SDS011;64571;47.512;19.054;2023-04-24T07:30:38;21.25;;;11.20;;
75890;SDS011;64571;47.512;19.054;2023-04-24T07:33:41;16.15;;;10.68;;
75890;SDS011;64571;47.512;19.054;2023-04-24T07:36:43;16.00;;;9.32;;
75890;SDS011;64571;47.512;19.054;2023-04-24T07:39:46;17.13;;;10.33;;
75890;SDS011;64571;47.512;19.054;2023-04-24T07:42:49;16.27;;;9.38;;
75890;SDS011;64571;47.512;19.054;2023-04-24T07:45:51;15.25;;;10.15;;
75890;SDS011;64571;47.512;19.054;2023-04-24T07:48:54;17.33;;;10.57;;
75890;SDS011;64571;47.512;19.054;2023-04-24T07:52:13;17.08;;;9.82;;
75890;SDS011;64571;47.512;19.054;2023-04-24T07:55:16;15.57;;;9.80;;
75890;SDS011;64571;47.512;19.054;2023-04-24T07:58:18;15.70;;;9.38;;
75890;SDS011;64571;47.512;19.054;2023-04-24T08:01:21;16.42;;;9.80;;
75890;SDS011;64571;47.512;19.054;2023-04-24T08:04:24;16.45;;;9.60;;
75890;SDS011;64571;47.512;19.054;2023-04-24T08:07:27;15.07;;;9.05;;
75890;SDS011;64571;47.512;19.054;2023-04-24T08:10:30;17.47;;;9.93;;
75890;SDS011;64571;47.512;19.054;2023-04-24T08:13:32;17.95;;;9.98;;
75890;SDS011;64571;47.512;19.054;2023-04-24T08:16:35;15.73;;;10.85;;
75890;SDS011;64571;47.512;19.054;2023-04-24T08:19:37;14.65;;;9.82;;
75890;SDS011;64571;47.512;19.054;2023-04-24T08:22:40;15.80;;;9.68;;
75890;SDS011;64571;47.512;19.054;2023-04-24T08:25:43;18.70;;;10.20;;
75890;SDS011;64571;47.512;19.054;2023-04-24T08:28:46;17.60;;;9.80;;
75890;SDS011;64571;47.512;19.054;2023-04-24T08:31:48;17.05;;;9.60;;
75890;SDS011;64571;47.512;19.054;2023-04-24T08:34:51;13.98;;;9.10;;
75890;SDS011;64571;47.512;19.054;2023-04-24T08:37:54;14.93;;;8.48;;
75890;SDS011;64571;47.512;19.054;2023-04-24T08:40:58;13.93;;;9.33;;
75890;SDS011;64571;47.512;19.054;2023-04-24T08:44:02;16.40;;;9.07;;
75890;SDS011;64571;47.512;19.054;2023-04-24T08:47:04;16.92;;;10.02;;
75890;SDS011;64571;47.512;19.054;2023-04-24T08:50:07;17.27;;;9.73;;
75890;SDS011;64571;47.512;19.054;2023-04-24T08:53:11;20.55;;;9.98;;
75890;SDS011;64571;47.512;19.054;2023-04-24T08:56:14;15.73;;;10.00;;
75890;SDS011;64571;47.512;19.054;2023-04-24T08:59:18;17.08;;;9.52;;
75890;SDS011;64571;47.512;19.054;2023-04-24T09:02:21;14.73;;;9.23;;
75890;SDS011;64571;47.512;19.054;2023-04-24T09:05:25;17.40;;;9.80;;
75890;SDS011;64571;47.512;19.054;2023-04-24T09:08:29;17.27;;;9.07;;
75890;SDS011;64571;47.512;19.054;2023-04-24T09:11:34;14.60;;;9.53;;
75890;SDS011;64571;47.512;19.054;2023-04-24T09:14:36;13.98;;;8.98;;
75890;SDS011;64571;47.512;19.054;2023-04-24T09:17:41;14.48;;;9.38;;
75890;SDS011;64571;47.512;19.054;2023-04-24T09:24:22;13.15;;;8.27;;
75890;SDS011;64571;47.512;19.054;2023-04-24T09:27:25;13.37;;;8.73;;
75890;SDS011;64571;47.512;19.054;2023-04-24T09:30:30;13.32;;;8.38;;
75890;SDS011;64571;47.512;19.054;2023-04-24T09:33:33;13.50;;;8.13;;
75890;SDS011;64571;47.512;19.054;2023-04-24T09:36:43;12.85;;;8.48;;
75890;SDS011;64571;47.512;19.054;2023-04-24T09:39:45;15.38;;;8.55;;
75890;SDS011;64571;47.512;19.054;2023-04-24T09:43:11;12.07;;;7.90;;
75890;SDS011;64571;47.512;19.054;2023-04-24T09:46:13;12.00;;;7.68;;
75890;SDS011;64571;47.512;19.054;2023-04-24T09:49:20;14.48;;;7.95;;
75890;SDS011;64571;47.512;19.054;2023-04-24T09:52:24;16.67;;;8.00;;
75890;SDS011;64571;47.512;19.054;2023-04-24T09:55:27;12.80;;;6.70;;
75890;SDS011;64571;47.512;19.054;2023-04-24T09:58:30;16.73;;;7.97;;
75890;SDS011;64571;47.512;19.054;2023-04-24T10:01:33;14.68;;;8.38;;
75890;SDS011;64571;47.512;19.054;2023-04-24T10:04:36;12.57;;;7.62;;
75890;SDS011;64571;47.512;19.054;2023-04-24T10:07:38;16.20;;;7.30;;
75890;SDS011;64571;47.512;19.054;2023-04-24T10:10:41;9.98;;;6.62;;
75890;SDS011;64571;47.512;19.054;2023-04-24T10:13:45;12.00;;;6.90;;
75890;SDS011;64571;47.512;19.054;2023-04-24T10:16:49;12.65;;;7.00;;
75890;SDS011;64571;47.512;19.054;2023-04-24T10:19:53;13.80;;;7.20;;
75890;SDS011;64571;47.512;19.054;2023-04-24T10:22:57;12.37;;;7.10;;
75890;SDS011;64571;47.512;19.054;2023-04-24T10:26:01;11.23;;;7.57;;
75890;SDS011;64571;47.512;19.054;2023-04-24T10:29:04;12.53;;;6.53;;
75890;SDS011;64571;47.512;19.054;2023-04-24T10:32:11;10.70;;;6.80;;
75890;SDS011;64571;47.512;19.054;2023-04-24T10:35:15;12.00;;;6.55;;
75890;SDS011;64571;47.512;19.054;2023-04-24T10:38:22;10.95;;;6.22;;
75890;SDS011;64571;47.512;19.054;2023-04-24T10:41:30;10.68;;;5.87;;
75890;SDS011;64571;47.512;19.054;2023-04-24T10:44:36;12.90;;;7.17;;
75890;SDS011;64571;47.512;19.054;2023-04-24T10:47:39;11.35;;;6.70;;
75890;SDS011;64571;47.512;19.054;2023-04-24T10:50:52;13.88;;;6.97;;
75890;SDS011;64571;47.512;19.054;2023-04-24T10:53:57;12.73;;;7.10;;
75890;SDS011;64571;47.512;19.054;2023-04-24T11:00:32;16.17;;;7.63;;
75890;SDS011;64571;47.512;19.054;2023-04-24T11:03:35;14.25;;;8.50;;
75890;SDS011;64571;47.512;19.054;2023-04-24T11:06:39;14.05;;;8.20;;
75890;SDS011;64571;47.512;19.054;2023-04-24T11:09:42;15.00;;;9.20;;
75890;SDS011;64571;47.512;19.054;2023-04-24T11:12:45;14.02;;;8.77;;
75890;SDS011;64571;47.512;19.054;2023-04-24T11:22:26;14.30;;;8.10;;
75890;SDS011;64571;47.512;19.054;2023-04-24T11:25:33;16.00;;;8.63;;
75890;SDS011;64571;47.512;19.054;2023-04-24T11:28:37;11.85;;;7.90;;
75890;SDS011;64571;47.512;19.054;2023-04-24T11:31:47;13.30;;;8.50;;
75890;SDS011;64571;47.512;19.054;2023-04-24T11:35:15;18.50;;;8.60;;
75890;SDS011;64571;47.512;19.054;2023-04-24T11:38:19;12.20;;;8.10;;
75890;SDS011;64571;47.512;19.054;2023-04-24T11:41:26;15.32;;;8.65;;
75890;SDS011;64571;47.512;19.054;2023-04-24T11:44:30;19.12;;;8.95;;
75890;SDS011;64571;47.512;19.054;2023-04-24T11:47:33;14.27;;;9.10;;
75890;SDS011;64571;47.512;19.054;2023-04-24T11:50:36;16.35;;;9.32;;
75890;SDS011;64571;47.512;19.054;2023-04-24T11:53:39;14.87;;;9.68;;
75890;SDS011;64571;47.512;19.054;2023-04-24T11:56:46;14.82;;;9.02;;
75890;SDS011;64571;47.512;19.054;2023-04-24T11:59:49;15.15;;;9.23;;
75890;SDS011;64571;47.512;19.054;2023-04-24T12:03:02;14.70;;;10.13;;
75890;SDS011;64571;47.512;19.054;2023-04-24T12:06:08;16.85;;;9.73;;
75890;SDS011;64571;47.512;19.054;2023-04-24T12:09:12;15.65;;;9.85;;
75890;SDS011;64571;47.512;19.054;2023-04-24T12:12:19;17.52;;;9.77;;
75890;SDS011;64571;47.512;19.054;2023-04-24T12:15:22;15.15;;;9.75;;
75890;SDS011;64571;47.512;19.054;2023-04-24T12:18:25;15.07;;;9.20;;
75890;SDS011;64571;47.512;19.054;2023-04-24T12:21:28;17.20;;;8.98;;
75890;SDS011;64571;47.512;19.054;2023-04-24T12:24:32;19.42;;;10.27;;
75890;SDS011;64571;47.512;19.054;2023-04-24T12:27:35;14.00;;;8.80;;
75890;SDS011;64571;47.512;19.054;2023-04-24T12:30:44;14.35;;;8.48;;
75890;SDS011;64571;47.512;19.054;2023-04-24T12:33:50;14.83;;;8.67;;
75890;SDS011;64571;47.512;19.054;2023-04-24T12:36:53;15.93;;;9.02;;
75890;SDS011;64571;47.512;19.054;2023-04-24T12:39:59;17.15;;;9.18;;
75890;SDS011;64571;47.512;19.054;2023-04-24T12:43:17;14.50;;;9.38;;
75890;SDS011;64571;47.512;19.054;2023-04-24T12:46:20;15.57;;;9.00;;
75890;SDS011;64571;47.512;19.054;2023-04-24T12:49:24;15.57;;;9.30;;
75890;SDS011;64571;47.512;19.054;2023-04-24T12:52:27;18.25;;;8.82;;
75890;SDS011;64571;47.512;19.054;2023-04-24T12:55:31;18.45;;;9.00;;
75890;SDS011;64571;47.512;19.054;2023-04-24T12:58:33;15.18;;;9.00;;
75890;SDS011;64571;47.512;19.054;2023-04-24T13:01:36;14.52;;;8.40;;
75890;SDS011;64571;47.512;19.054;2023-04-24T13:04:38;17.17;;;9.07;;
75890;SDS011;64571;47.512;19.054;2023-04-24T13:07:41;12.85;;;7.45;;
75890;SDS011;64571;47.512;19.054;2023-04-24T13:10:43;16.95;;;8.07;;
75890;SDS011;64571;47.512;19.054;2023-04-24T13:13:46;12.57;;;7.87;;
75890;SDS011;64571;47.512;19.054;2023-04-24T13:16:49;14.95;;;6.78;;
75890;SDS011;64571;47.512;19.054;2023-04-24T13:19:53;12.27;;;6.47;;
75890;SDS011;64571;47.512;19.054;2023-04-24T13:22:56;13.57;;;6.30;;
75890;SDS011;64571;47.512;19.054;2023-04-24T13:25:59;11.50;;;6.53;;
75890;SDS011;64571;47.512;19.054;2023-04-24T13:29:01;17.50;;;6.03;;
75890;SDS011;64571;47.512;19.054;2023-04-24T13:32:05;13.25;;;5.82;;
75890;SDS011;64571;47.512;19.054;2023-04-24T13:35:08;8.77;;;4.60;;
75890;SDS011;64571;47.512;19.054;2023-04-24T13:38:11;13.52;;;5.53;;
75890;SDS011;64571;47.512;19.054;2023-04-24T13:41:13;13.60;;;4.50;;
75890;SDS011;64571;47.512;19.054;2023-04-24T13:44:19;20.75;;;5.03;;
75890;SDS011;64571;47.512;19.054;2023-04-24T13:47:22;11.43;;;5.30;;
75890;SDS011;64571;47.512;19.054;2023-04-24T13:50:25;12.13;;;5.63;;
75890;SDS011;64571;47.512;19.054;2023-04-24T13:53:27;13.85;;;5.60;;
75890;SDS011;64571;47.512;19.054;2023-04-24T13:56:30;9.80;;;5.80;;
75890;SDS011;64571;47.512;19.054;2023-04-24T13:59:32;11.82;;;5.62;;
75890;SDS011;64571;47.512;19.054;2023-04-24T14:02:35;11.02;;;6.32;;
75890;SDS011;64571;47.512;19.054;2023-04-24T14:05:38;13.77;;;5.60;;
75890;SDS011;64571;47.512;19.054;2023-04-24T14:08:40;13.23;;;6.05;;
75890;SDS011;64571;47.512;19.054;2023-04-24T14:11:43;14.85;;;7.28;;
75890;SDS011;64571;47.512;19.054;2023-04-24T14:14:46;12.73;;;6.72;;
75890;SDS011;64571;47.512;19.054;2023-04-24T14:17:50;14.57;;;7.22;;
75890;SDS011;64571;47.512;19.054;2023-04-24T14:20:52;14.53;;;7.67;;
75890;SDS011;64571;47.512;19.054;2023-04-24T14:23:55;10.55;;;6.87;;
75890;SDS011;64571;47.512;19.054;2023-04-24T14:26:57;11.95;;;6.18;;
75890;SDS011;64571;47.512;19.054;2023-04-24T14:30:00;10.48;;;6.47;;
75890;SDS011;64571;47.512;19.054;2023-04-24T14:33:03;10.15;;;6.15;;
75890;SDS011;64571;47.512;19.054;2023-04-24T14:36:06;10.23;;;5.97;;
75890;SDS011;64571;47.512;19.054;2023-04-24T14:39:08;12.00;;;6.10;;
75890;SDS011;64571;47.512;19.054;2023-04-24T14:42:12;13.98;;;7.18;;
75890;SDS011;64571;47.512;19.054;2023-04-24T14:45:15;12.65;;;6.72;;
75890;SDS011;64571;47.512;19.054;2023-04-24T14:48:18;15.43;;;7.75;;
75890;SDS011;64571;47.512;19.054;2023-04-24T14:51:20;12.63;;;7.80;;
75890;SDS011;64571;47.512;19.054;2023-04-24T14:54:23;13.82;;;7.55;;
75890;SDS011;64571;47.512;19.054;2023-04-24T14:57:25;14.48;;;7.55;;
75890;SDS011;64571;47.512;19.054;2023-04-24T15:00:28;14.02;;;7.97;;
75890;SDS011;64571;47.512;19.054;2023-04-24T15:03:30;13.07;;;7.50;;
75890;SDS011;64571;47.512;19.054;2023-04-24T15:06:33;11.47;;;7.13;;
75890;SDS011;64571;47.512;19.054;2023-04-24T15:09:36;11.32;;;7.43;;
75890;SDS011;64571;47.512;19.054;2023-04-24T15:12:39;12.30;;;7.22;;
75890;SDS011;64571;47.512;19.054;2023-04-24T15:15:41;12.95;;;7.87;;
75890;SDS011;64571;47.512;19.054;2023-04-24T15:18:44;12.43;;;6.80;;
75890;SDS011;64571;47.512;19.054;2023-04-24T15:21:46;17.07;;;9.47;;
75890;SDS011;64571;47.512;19.054;2023-04-24T15:24:49;11.02;;;7.15;;
75890;SDS011;64571;47.512;19.054;2023-04-24T15:27:51;10.05;;;6.18;;
75890;SDS011;64571;47.512;19.054;2023-04-24T15:30:54;8.82;;;5.10;;
75890;SDS011;64571;47.512;19.054;2023-04-24T15:33:56;9.85;;;4.85;;
75890;SDS011;64571;47.512;19.054;2023-04-24T15:36:59;8.30;;;4.60;;
75890;SDS011;64571;47.512;19.054;2023-04-24T15:40:02;8.93;;;4.85;;
75890;SDS011;64571;47.512;19.054;2023-04-24T15:43:07;8.70;;;5.35;;
75890;SDS011;64571;47.512;19.054;2023-04-24T15:46:10;8.80;;;4.75;;
75890;SDS011;64571;47.512;19.054;2023-04-24T15:49:13;8.38;;;4.87;;
75890;SDS011;64571;47.512;19.054;2023-04-24T15:52:15;10.70;;;5.77;;
75890;SDS011;64571;47.512;19.054;2023-04-24T15:55:18;8.18;;;4.53;;
75890;SDS011;64571;47.512;19.054;2023-04-24T15:58:20;9.05;;;4.87;;
75890;SDS011;64571;47.512;19.054;2023-04-24T16:01:23;9.52;;;5.62;;
75890;SDS011;64571;47.512;19.054;2023-04-24T16:04:26;12.57;;;5.80;;
75890;SDS011;64571;47.512;19.054;2023-04-24T16:07:29;9.83;;;5.27;;
75890;SDS011;64571;47.512;19.054;2023-04-24T16:10:32;9.32;;;5.40;;
75890;SDS011;64571;47.512;19.054;2023-04-24T16:13:35;9.32;;;5.32;;
75890;SDS011;64571;47.512;19.054;2023-04-24T16:16:38;13.73;;;5.53;;
75890;SDS011;64571;47.512;19.054;2023-04-24T16:19:40;11.70;;;8.30;;
75890;SDS011;64571;47.512;19.054;2023-04-24T16:22:43;9.33;;;5.20;;
75890;SDS011;64571;47.512;19.054;2023-04-24T16:25:45;8.10;;;4.65;;
75890;SDS011;64571;47.512;19.054;2023-04-24T16:28:48;8.00;;;4.68;;
75890;SDS011;64571;47.512;19.054;2023-04-24T16:31:51;8.25;;;5.00;;
75890;SDS011;64571;47.512;19.054;2023-04-24T16:34:54;10.18;;;5.40;;
75890;SDS011;64571;47.512;19.054;2023-04-24T16:37:56;8.53;;;5.27;;
75890;SDS011;64571;47.512;19.054;2023-04-24T16:40:59;9.75;;;6.20;;
75890;SDS011;64571;47.512;19.054;2023-04-24T16:44:01;11.05;;;6.37;;
75890;SDS011;64571;47.512;19.054;2023-04-24T16:47:07;9.32;;;5.75;;
75890;SDS011;64571;47.512;19.054;2023-04-24T16:50:11;9.60;;;5.87;;
75890;SDS011;64571;47.512;19.054;2023-04-24T16:53:14;8.63;;;5.83;;
75890;SDS011;64571;47.512;19.054;2023-04-24T16:56:16;9.88;;;5.80;;
75890;SDS011;64571;47.512;19.054;2023-04-24T16:59:19;8.98;;;5.57;;
75890;SDS011;64571;47.512;19.054;2023-04-24T17:02:22;7.62;;;4.62;;
75890;SDS011;64571;47.512;19.054;2023-04-24T17:05:24;9.02;;;4.82;;
75890;SDS011;64571;47.512;19.054;2023-04-24T17:08:27;12.90;;;5.63;;
75890;SDS011;64571;47.512;19.054;2023-04-24T17:11:31;9.18;;;5.60;;
75890;SDS011;64571;47.512;19.054;2023-04-24T17:14:33;8.80;;;5.30;;
75890;SDS011;64571;47.512;19.054;2023-04-24T17:17:36;8.40;;;5.22;;
75890;SDS011;64571;47.512;19.054;2023-04-24T17:20:38;9.00;;;5.25;;
75890;SDS011;64571;47.512;19.054;2023-04-24T17:23:41;9.00;;;4.60;;
75890;SDS011;64571;47.512;19.054;2023-04-24T17:26:44;8.05;;;4.20;;
75890;SDS011;64571;47.512;19.054;2023-04-24T17:29:46;6.25;;;3.85;;
75890;SDS011;64571;47.512;19.054;2023-04-24T17:32:50;7.97;;;4.20;;
75890;SDS011;64571;47.512;19.054;2023-04-24T17:35:53;7.47;;;3.87;;
75890;SDS011;64571;47.512;19.054;2023-04-24T17:38:55;6.33;;;3.80;;
75890;SDS011;64571;47.512;19.054;2023-04-24T17:41:58;9.23;;;4.45;;
75890;SDS011;64571;47.512;19.054;2023-04-24T17:45:01;7.97;;;4.53;;
75890;SDS011;64571;47.512;19.054;2023-04-24T17:48:04;8.77;;;5.22;;
75890;SDS011;64571;47.512;19.054;2023-04-24T17:51:06;12.18;;;4.85;;
75890;SDS011;64571;47.512;19.054;2023-04-24T17:54:09;8.57;;;5.20;;
75890;SDS011;64571;47.512;19.054;2023-04-24T17:57:11;7.75;;;4.75;;
75890;SDS011;64571;47.512;19.054;2023-04-24T18:00:14;14.73;;;6.47;;
75890;SDS011;64571;47.512;19.054;2023-04-24T18:03:17;10.82;;;5.62;;
75890;SDS011;64571;47.512;19.054;2023-04-24T18:06:20;7.18;;;4.10;;